Weather at Mãe do Rio Airstrip

Public forecast

Using degrees Celsius for public forecast. Weather courtesy of forecast.io.

Closest aviation weather report (METAR) to Mãe do Rio Airstrip

Closest report is Val de Cans/Júlio Cezar Ribeiro International Airport, 69.5 nm (128.8 km) NW. Retrieved 2021/08/02 11:00 UTC (44 minutes ago):

SBBE 021100Z 09005KT CAVOK 26/23 Q1017

Closest aviation forecast (TAF) to Mãe do Rio Airstrip

Closest forecast is Val de Cans/Júlio Cezar Ribeiro International Airport, 69.5 nm (128.8 km) NW. Retrieved 2021/08/02 06:00 UTC (6 hours ago):

TAF SBBE 020230Z 0206/0306 VRB03KT 8000 NSC TN23/0209Z TX31/0217Z BECMG 0211/0213 14010KT SCT030 FEW045TCU PROB40 0218/0221 5000 SHRA BECMG 0221/0223 07005KT SCT030 RMK PGU